createdAt,value
2018-02-20T00:00:01.845Z,57.80
2018-02-20T00:02:29.467Z,57.90
2018-02-20T00:04:57.044Z,58.07
2018-02-20T00:07:25.363Z,57.67
2018-02-20T00:09:52.959Z,59.50
2018-02-20T00:12:20.502Z,61.50
2018-02-20T00:14:48.088Z,63.97
2018-02-20T00:17:15.695Z,63.07
2018-02-20T00:19:43.270Z,63.67
2018-02-20T00:22:10.876Z,65.20
2018-02-20T00:24:39.235Z,68.97
2018-02-20T00:27:06.806Z,64.70
2018-02-20T00:29:34.411Z,63.30
2018-02-20T00:32:02.198Z,62.20
2018-02-20T00:34:29.799Z,60.87
2018-02-20T00:36:58.143Z,60.27
2018-02-20T00:39:25.707Z,57.83
2018-02-20T00:41:53.323Z,59.70
2018-02-20T00:44:20.894Z,58.70
2018-02-20T00:46:48.466Z,59.17
2018-02-20T00:49:16.062Z,59.80
2018-02-20T00:51:44.401Z,59.60
2018-02-20T00:54:12.009Z,58.93
2018-02-20T00:56:40.390Z,60.13
2018-02-20T00:59:08.748Z,58.77
2018-02-20T01:01:37.104Z,63.20
2018-02-20T01:04:04.693Z,66.23
2018-02-20T01:06:33.039Z,72.20
2018-02-20T01:09:00.626Z,79.70
2018-02-20T01:11:28.995Z,81.60
2018-02-20T01:13:56.663Z,69.10
2018-02-20T01:16:24.315Z,70.03
2018-02-20T01:18:51.927Z,64.27
2018-02-20T01:21:19.514Z,63.03
2018-02-20T01:23:47.105Z,60.30
2018-02-20T01:26:14.720Z,68.00
2018-02-20T01:28:42.330Z,68.10
2018-02-20T01:31:10.671Z,60.90
2018-02-20T01:33:38.243Z,63.60
2018-02-20T01:36:06.701Z,59.40
2018-02-20T01:38:34.270Z,62.33
2018-02-20T01:41:01.833Z,57.13
2018-02-20T01:43:29.444Z,62.63
2018-02-20T01:45:57.016Z,60.80
2018-02-20T01:48:24.583Z,64.00
2018-02-20T01:51:04.114Z,61.77
2018-02-20T01:53:31.705Z,60.87
2018-02-20T01:55:59.289Z,58.70
2018-02-20T01:58:28.407Z,57.87
2018-02-20T02:00:57.056Z,58.77
2018-02-20T02:03:24.641Z,56.60
2018-02-20T02:05:53.015Z,58.17
2018-02-20T02:08:21.341Z,59.93
2018-02-20T02:10:48.938Z,59.20
2018-02-20T02:13:16.556Z,62.03
2018-02-20T02:15:44.392Z,60.90
2018-02-20T02:18:11.960Z,59.97
2018-02-20T02:20:39.552Z,58.17
2018-02-20T02:23:07.134Z,59.30
2018-02-20T02:25:35.521Z,57.00
2018-02-20T02:28:03.138Z,56.37
2018-02-20T02:30:31.081Z,55.10
2018-02-20T02:32:58.834Z,58.67
2018-02-20T02:35:27.582Z,52.53
2018-02-20T02:37:56.743Z,54.33
2018-02-20T02:40:24.365Z,55.60
2018-02-20T02:42:52.710Z,57.40
2018-02-20T02:45:20.407Z,55.80
2018-02-20T02:47:48.794Z,52.47
2018-02-20T02:50:16.376Z,53.80
2018-02-20T02:52:44.023Z,54.77
2018-02-20T02:55:11.627Z,58.13
2018-02-20T02:57:40.717Z,57.90
2018-02-20T03:00:09.241Z,59.43
2018-02-20T03:02:37.596Z,57.80
2018-02-20T03:05:05.984Z,55.83
2018-02-20T03:07:34.329Z,58.10
2018-02-20T03:10:01.918Z,58.10
2018-02-20T03:12:29.624Z,62.23
2018-02-20T03:14:57.215Z,60.10
2018-02-20T03:17:24.786Z,61.80
2018-02-20T03:19:52.401Z,60.73
2018-02-20T03:22:19.974Z,60.77
2018-02-20T03:24:47.538Z,64.87
2018-02-20T03:27:15.144Z,62.57
2018-02-20T03:29:43.654Z,62.37
2018-02-20T03:32:11.228Z,57.83
2018-02-20T03:34:39.336Z,59.50
2018-02-20T03:37:07.677Z,60.03
2018-02-20T03:39:35.241Z,67.80
2018-02-20T03:42:03.233Z,63.17
2018-02-20T03:44:30.817Z,62.97
2018-02-20T03:46:59.162Z,60.87
2018-02-20T03:49:26.778Z,63.87
2018-02-20T03:51:54.365Z,59.30
2018-02-20T03:54:21.942Z,66.90
2018-02-20T03:56:49.534Z,62.80
2018-02-20T03:59:17.874Z,62.47
2018-02-20T04:01:45.715Z,64.40
2018-02-20T04:04:13.303Z,62.13
2018-02-20T04:06:40.895Z,63.90
2018-02-20T04:09:09.240Z,62.67
2018-02-20T04:11:36.841Z,62.60
2018-02-20T04:14:05.186Z,62.60
2018-02-20T04:16:32.780Z,63.20
2018-02-20T04:19:01.144Z,67.00
2018-02-20T04:21:28.738Z,65.67
2018-02-20T04:23:56.360Z,63.20
2018-02-20T04:26:24.705Z,67.80
2018-02-20T04:28:53.096Z,69.17
2018-02-20T04:31:20.708Z,67.77
2018-02-20T04:33:48.283Z,68.07
2018-02-20T04:36:15.852Z,70.07
2018-02-20T04:38:43.462Z,70.97
2018-02-20T04:41:11.803Z,67.20
2018-02-20T04:43:39.378Z,68.00
2018-02-20T04:46:08.498Z,72.10
2018-02-20T04:48:36.086Z,70.13
2018-02-20T04:51:03.658Z,74.10
2018-02-20T04:53:31.258Z,72.50
2018-02-20T04:55:59.598Z,71.87
2018-02-20T04:58:27.192Z,73.40
2018-02-20T05:00:55.583Z,67.33
2018-02-20T05:03:23.222Z,63.47
2018-02-20T05:05:51.589Z,65.33
2018-02-20T05:08:19.943Z,63.03
2018-02-20T05:10:47.557Z,63.20
2018-02-20T05:13:16.099Z,64.07
2018-02-20T05:15:43.678Z,62.20
2018-02-20T05:18:11.273Z,62.83
2018-02-20T05:20:39.295Z,61.60
2018-02-20T05:23:06.917Z,62.43
2018-02-20T05:25:34.504Z,59.90
2018-02-20T05:28:02.337Z,59.50
2018-02-20T05:30:29.918Z,63.27
2018-02-20T05:32:57.505Z,59.30
2018-02-20T05:35:25.117Z,63.30
2018-02-20T05:37:52.695Z,63.73
2018-02-20T05:40:20.279Z,63.23
2018-02-20T05:42:47.895Z,63.77
2018-02-20T05:45:15.464Z,64.87
2018-02-20T05:47:43.060Z,62.73
2018-02-20T05:50:10.660Z,64.67
2018-02-20T05:52:38.263Z,64.33
2018-02-20T05:55:06.133Z,68.07
2018-02-20T05:57:33.860Z,67.53
2018-02-20T06:00:01.428Z,68.07
2018-02-20T06:02:29.032Z,66.37
2018-02-20T06:04:56.613Z,62.97
2018-02-20T06:07:24.998Z,64.17
2018-02-20T06:09:53.344Z,66.93
2018-02-20T06:12:20.933Z,66.27
2018-02-20T06:14:48.530Z,65.53
2018-02-20T06:17:16.111Z,66.87
2018-02-20T06:19:45.347Z,75.97
2018-02-20T06:22:12.956Z,73.53
2018-02-20T06:24:40.531Z,72.80
2018-02-20T06:27:08.095Z,70.53
2018-02-20T06:29:35.809Z,70.30
2018-02-20T06:32:03.398Z,66.97
2018-02-20T06:34:30.998Z,71.67
2018-02-20T06:36:59.512Z,67.70
2018-02-20T06:39:27.091Z,70.80
2018-02-20T06:41:54.832Z,72.27
2018-02-20T06:44:22.451Z,70.67
2018-02-20T06:46:50.812Z,71.73
2018-02-20T06:49:18.374Z,70.67
2018-02-20T06:51:45.975Z,69.03
2018-02-20T06:54:13.542Z,69.00
2018-02-20T06:56:41.123Z,70.20
2018-02-20T06:59:08.732Z,72.50
2018-02-20T07:01:37.096Z,75.27
2018-02-20T07:04:04.696Z,76.60
2018-02-20T07:06:32.306Z,77.50
2018-02-20T07:08:59.919Z,74.10
2018-02-20T07:11:27.498Z,73.87
2018-02-20T07:13:55.114Z,74.50
2018-02-20T07:16:22.703Z,74.10
2018-02-20T07:18:50.282Z,73.67
2018-02-20T07:21:17.900Z,71.97
2018-02-20T07:23:45.481Z,77.13
2018-02-20T07:26:13.059Z,80.10
2018-02-20T07:28:40.673Z,80.40
2018-02-20T07:31:08.997Z,79.17
2018-02-20T07:33:36.567Z,80.17
2018-02-20T07:36:04.172Z,80.30
2018-02-20T07:38:31.751Z,81.53
2018-02-20T07:40:59.362Z,83.47
2018-02-20T07:43:26.940Z,79.67
2018-02-20T07:45:55.274Z,80.27
2018-02-20T07:48:22.879Z,78.73
2018-02-20T07:50:51.215Z,76.63
2018-02-20T07:53:18.790Z,78.13
2018-02-20T07:55:46.389Z,75.90
2018-02-20T07:58:13.980Z,77.60
2018-02-20T08:00:41.543Z,75.87
2018-02-20T08:03:09.149Z,75.00
2018-02-20T08:05:37.521Z,74.53
2018-02-20T08:08:05.871Z,78.73
2018-02-20T08:10:33.669Z,73.93
2018-02-20T08:13:02.009Z,74.40
2018-02-20T08:15:29.586Z,73.73
2018-02-20T08:17:57.192Z,73.60
2018-02-20T08:20:24.763Z,73.93
2018-02-20T08:22:52.356Z,76.43
2018-02-20T08:25:21.027Z,75.30
2018-02-20T08:27:48.617Z,77.10
2018-02-20T08:30:16.955Z,77.27
2018-02-20T08:32:44.563Z,78.40
2018-02-20T08:35:12.905Z,76.50
2018-02-20T08:37:41.999Z,77.60
2018-02-20T08:40:09.620Z,77.80
2018-02-20T08:42:37.201Z,76.10
2018-02-20T08:45:04.766Z,70.07
2018-02-20T08:47:32.394Z,68.13
2018-02-20T08:50:00.009Z,66.97
2018-02-20T08:52:28.349Z,65.80
2018-02-20T08:54:55.965Z,65.90
2018-02-20T08:57:24.327Z,66.30
2018-02-20T08:59:52.044Z,61.50
2018-02-20T09:02:19.610Z,62.50
2018-02-20T09:04:47.230Z,64.73
2018-02-20T09:07:15.616Z,63.50
2018-02-20T09:09:43.193Z,73.33
2018-02-20T09:12:10.879Z,66.10
2018-02-20T09:14:39.215Z,65.00
2018-02-20T09:17:06.772Z,63.70
2018-02-20T09:19:34.377Z,58.43
2018-02-20T09:22:02.149Z,58.97
2018-02-20T09:24:29.713Z,60.90
2018-02-20T09:26:57.323Z,55.50
2018-02-20T09:29:24.907Z,57.07
2018-02-20T09:31:52.493Z,56.97
2018-02-20T09:34:20.108Z,56.50
2018-02-20T09:36:47.744Z,55.23
2018-02-20T09:39:15.313Z,51.63
2018-02-20T09:41:42.922Z,50.73
2018-02-20T09:44:10.493Z,50.80
2018-02-20T09:46:38.121Z,52.00
2018-02-20T09:49:05.733Z,49.20
2018-02-20T09:51:34.080Z,46.40
2018-02-20T09:54:02.434Z,45.90
2018-02-20T09:56:30.041Z,47.33
2018-02-20T09:58:58.390Z,46.10
2018-02-20T10:01:25.948Z,45.40
2018-02-20T10:03:53.547Z,46.30
2018-02-20T10:06:21.107Z,45.90
2018-02-20T10:08:49.433Z,44.10
2018-02-20T10:11:17.032Z,46.07
2018-02-20T10:13:45.979Z,41.80
2018-02-20T10:16:13.556Z,43.27
2018-02-20T10:18:42.696Z,43.40
2018-02-20T10:21:10.281Z,42.73
2018-02-20T10:23:37.896Z,45.17
2018-02-20T10:26:06.252Z,43.80
2018-02-20T10:28:33.846Z,41.87
2018-02-20T10:31:02.596Z,42.80
2018-02-20T10:33:30.161Z,42.37
2018-02-20T10:35:58.487Z,41.30
2018-02-20T10:38:26.078Z,42.30
2018-02-20T10:40:53.655Z,43.77
2018-02-20T10:43:21.222Z,42.93
2018-02-20T10:45:49.585Z,40.70
2018-02-20T10:48:18.024Z,43.67
2018-02-20T10:50:45.846Z,40.77
2018-02-20T10:53:14.202Z,40.77
2018-02-20T10:55:41.769Z,39.97
2018-02-20T10:58:09.371Z,38.20
2018-02-20T11:00:37.366Z,39.43
2018-02-20T11:03:04.921Z,40.37
2018-02-20T11:05:32.488Z,40.70
2018-02-20T11:08:00.700Z,40.93
2018-02-20T11:10:29.029Z,40.83
2018-02-20T11:12:56.650Z,39.13
2018-02-20T11:15:25.039Z,39.03
2018-02-20T11:17:52.639Z,38.00
2018-02-20T11:20:20.205Z,39.57
2018-02-20T11:22:47.806Z,38.40
2018-02-20T11:25:16.131Z,37.60
2018-02-20T11:27:44.161Z,44.43
2018-02-20T11:30:11.727Z,48.60
2018-02-20T11:32:39.353Z,42.07
2018-02-20T11:35:06.881Z,43.07
2018-02-20T11:37:35.411Z,43.93
2018-02-20T11:40:03.768Z,35.20
2018-02-20T11:42:31.348Z,37.33
2018-02-20T11:44:58.878Z,36.80
2018-02-20T11:47:26.844Z,35.33
2018-02-20T11:49:54.413Z,36.60
2018-02-20T11:52:22.761Z,35.13
2018-02-20T11:54:51.561Z,35.67
2018-02-20T11:57:20.001Z,35.20
2018-02-20T11:59:47.563Z,35.37
2018-02-20T12:02:15.164Z,35.50
2018-02-20T12:04:43.116Z,35.60
2018-02-20T12:07:10.699Z,32.30
2018-02-20T12:09:38.301Z,33.20
2018-02-20T12:12:05.866Z,32.60
2018-02-20T12:14:33.851Z,32.60
2018-02-20T12:17:01.729Z,32.67
2018-02-20T12:19:29.328Z,32.23
2018-02-20T12:21:57.659Z,32.00
2018-02-20T12:24:25.256Z,28.40
2018-02-20T12:26:53.586Z,29.80
2018-02-20T12:29:21.182Z,30.43
2018-02-20T12:31:49.100Z,29.70
2018-02-20T12:34:16.678Z,32.30
2018-02-20T12:36:44.354Z,32.80
2018-02-20T12:39:11.963Z,32.27
2018-02-20T12:41:39.537Z,34.57
2018-02-20T12:44:07.144Z,33.07
2018-02-20T12:46:34.751Z,32.80
2018-02-20T12:49:02.317Z,31.27
2018-02-20T12:51:30.033Z,34.53
2018-02-20T12:53:58.399Z,32.73
2018-02-20T12:56:26.734Z,33.53
2018-02-20T12:58:54.299Z,33.03
2018-02-20T13:01:22.183Z,36.10
2018-02-20T13:03:49.745Z,34.03
2018-02-20T13:06:17.315Z,35.30
2018-02-20T13:08:44.905Z,34.47
2018-02-20T13:11:12.491Z,35.30
2018-02-20T13:13:40.089Z,35.00
2018-02-20T13:16:08.682Z,34.07
2018-02-20T13:18:36.240Z,35.70
2018-02-20T13:21:03.810Z,36.03
2018-02-20T13:23:32.181Z,35.53
2018-02-20T13:25:59.754Z,36.60
2018-02-20T13:28:28.083Z,37.50
2018-02-20T13:30:55.938Z,38.93
2018-02-20T13:33:23.503Z,39.70
2018-02-20T13:35:51.055Z,39.70
2018-02-20T13:38:18.648Z,40.50
2018-02-20T13:40:46.214Z,39.97
2018-02-20T13:43:13.790Z,39.73
2018-02-20T13:45:42.426Z,39.83
2018-02-20T13:48:10.000Z,39.87
2018-02-20T13:50:39.383Z,40.20
2018-02-20T13:53:06.983Z,39.90
2018-02-20T13:55:35.310Z,39.37
2018-02-20T13:58:02.880Z,39.57
2018-02-20T14:00:30.469Z,38.17
2018-02-20T14:02:58.819Z,38.23
2018-02-20T14:05:26.401Z,38.37
2018-02-20T14:07:53.986Z,39.60
2018-02-20T14:10:22.336Z,39.57
2018-02-20T14:12:49.894Z,38.37
2018-02-20T14:15:18.272Z,35.40
2018-02-20T14:17:45.842Z,35.73
2018-02-20T14:20:13.414Z,38.30
2018-02-20T14:22:41.904Z,35.83
2018-02-20T14:25:09.482Z,35.83
2018-02-20T14:27:37.053Z,31.27
2018-02-20T14:30:04.655Z,33.10
2018-02-20T14:32:32.215Z,32.40
2018-02-20T14:34:59.813Z,32.27
2018-02-20T14:37:27.440Z,33.03
2018-02-20T14:39:55.768Z,32.93
2018-02-20T14:42:24.199Z,32.43
2018-02-20T14:44:52.863Z,33.70
2018-02-20T14:47:22.290Z,33.97
2018-02-20T14:49:50.635Z,33.33
2018-02-20T14:52:18.254Z,31.63
2018-02-20T14:54:45.819Z,31.67
2018-02-20T14:57:13.434Z,32.30
2018-02-20T14:59:41.156Z,31.07
2018-02-20T15:02:08.722Z,30.30
2018-02-20T15:04:36.324Z,30.57
2018-02-20T15:07:04.697Z,31.83
2018-02-20T15:09:33.035Z,30.23
2018-02-20T15:12:00.675Z,31.93
2018-02-20T15:14:28.632Z,32.63
2018-02-20T15:16:56.194Z,32.03
2018-02-20T15:19:23.756Z,29.00
2018-02-20T15:21:51.487Z,27.50
2018-02-20T15:24:19.820Z,27.33
2018-02-20T15:26:47.385Z,27.93
2018-02-20T15:29:14.974Z,27.60
2018-02-20T15:31:43.312Z,27.80
2018-02-20T15:34:10.917Z,28.07
2018-02-20T15:36:38.817Z,28.47
2018-02-20T15:39:06.378Z,29.00
2018-02-20T15:41:34.003Z,29.03
2018-02-20T15:44:02.794Z,31.33
2018-02-20T15:46:31.156Z,28.97
2018-02-20T15:48:58.713Z,30.00
2018-02-20T15:51:26.580Z,29.73
2018-02-20T15:53:54.920Z,28.50
2018-02-20T15:56:22.490Z,30.10
2018-02-20T15:58:50.087Z,29.83
2018-02-20T16:01:18.569Z,29.83
2018-02-20T16:03:46.894Z,29.57
2018-02-20T16:06:14.774Z,28.80
2018-02-20T16:08:42.353Z,29.67
2018-02-20T16:11:10.716Z,28.03
2018-02-20T16:13:38.578Z,30.00
2018-02-20T16:16:10.864Z,30.13
2018-02-20T16:18:38.471Z,30.53
2018-02-20T16:21:06.038Z,31.93
2018-02-20T16:23:33.618Z,29.70
2018-02-20T16:26:03.020Z,30.83
2018-02-20T16:28:30.656Z,31.63
2018-02-20T16:30:58.211Z,31.27
2018-02-20T16:33:25.808Z,31.90
2018-02-20T16:35:53.376Z,32.63
2018-02-20T16:38:20.965Z,31.90
2018-02-20T16:40:49.738Z,31.60
2018-02-20T16:43:18.164Z,43.00
2018-02-20T16:45:45.782Z,43.60
2018-02-20T16:48:14.155Z,31.47
2018-02-20T16:50:42.516Z,30.57
2018-02-20T16:53:10.847Z,31.80
2018-02-20T16:55:38.468Z,32.70
2018-02-20T16:58:07.024Z,31.20
2018-02-20T17:00:34.601Z,31.77
2018-02-20T17:03:02.998Z,31.53
2018-02-20T17:05:31.339Z,30.63
2018-02-20T17:07:58.909Z,29.77
2018-02-20T17:10:26.532Z,31.70
2018-02-20T17:12:54.118Z,29.83
2018-02-20T17:15:21.692Z,31.23
2018-02-20T17:17:49.714Z,30.17
2018-02-20T17:20:17.279Z,31.97
2018-02-20T17:22:44.852Z,30.60
2018-02-20T17:25:12.471Z,30.30
2018-02-20T17:27:40.047Z,32.93
2018-02-20T17:30:07.664Z,32.73
2018-02-20T17:32:35.620Z,30.50
2018-02-20T17:35:03.203Z,32.23
2018-02-20T17:37:31.514Z,31.90
2018-02-20T17:39:59.411Z,33.80
2018-02-20T17:42:27.766Z,36.23
2018-02-20T17:44:55.340Z,34.77
2018-02-20T17:47:23.312Z,34.87
2018-02-20T17:49:51.050Z,37.63
2018-02-20T17:52:18.627Z,34.10
2018-02-20T17:54:46.494Z,35.40
2018-02-20T17:57:14.161Z,34.67
2018-02-20T17:59:41.729Z,36.53
2018-02-20T18:02:09.379Z,36.57
2018-02-20T18:04:36.914Z,37.40
2018-02-20T18:07:04.481Z,36.43
2018-02-20T18:09:32.138Z,34.00
2018-02-20T18:12:00.036Z,35.00
2018-02-20T18:14:27.598Z,36.03
2018-02-20T18:16:55.202Z,36.37
2018-02-20T18:19:22.785Z,36.20
2018-02-20T18:21:50.359Z,38.37
2018-02-20T18:24:18.512Z,36.30
2018-02-20T18:26:46.133Z,34.70
2018-02-20T18:29:15.313Z,35.70
2018-02-20T18:31:43.766Z,37.57
2018-02-20T18:34:11.366Z,38.70
2018-02-20T18:36:39.718Z,37.07
2018-02-20T18:39:08.388Z,38.17
2018-02-20T18:41:35.956Z,38.90
2018-02-20T18:44:03.516Z,42.70
2018-02-20T18:46:31.141Z,41.20
2018-02-20T18:48:58.728Z,43.57
2018-02-20T18:51:26.342Z,41.33
2018-02-20T18:53:53.956Z,42.37
2018-02-20T18:56:21.547Z,43.20
2018-02-20T18:58:50.195Z,43.23
2018-02-20T19:01:17.785Z,43.67
2018-02-20T19:03:46.136Z,41.77
2018-02-20T19:06:13.739Z,44.37
2018-02-20T19:08:41.347Z,46.17
2018-02-20T19:11:08.926Z,46.37
2018-02-20T19:13:37.312Z,45.40
2018-02-20T19:16:05.649Z,47.00
2018-02-20T19:18:33.215Z,45.53
2018-02-20T19:21:01.177Z,44.77
2018-02-20T19:23:28.744Z,45.30
2018-02-20T19:25:56.326Z,42.63
2018-02-20T19:28:24.665Z,43.73
2018-02-20T19:30:53.033Z,46.37
2018-02-20T19:33:20.643Z,43.10
2018-02-20T19:35:49.291Z,45.13
2018-02-20T19:38:16.841Z,44.67
2018-02-20T19:40:44.411Z,45.60
2018-02-20T19:43:12.387Z,45.60
2018-02-20T19:45:39.953Z,45.47
2018-02-20T19:48:07.532Z,46.17
2018-02-20T19:50:35.937Z,45.43
2018-02-20T19:53:03.501Z,48.07
2018-02-20T19:55:31.124Z,49.03
2018-02-20T19:57:59.494Z,46.60
2018-02-20T20:00:27.864Z,49.27
2018-02-20T20:02:55.798Z,49.30
2018-02-20T20:05:23.401Z,49.10
2018-02-20T20:07:50.990Z,46.37
2018-02-20T20:10:18.613Z,45.93
2018-02-20T20:12:46.208Z,42.13
2018-02-20T20:15:13.806Z,43.67
2018-02-20T20:17:41.382Z,41.50
2018-02-20T20:20:08.957Z,42.50
2018-02-20T20:22:37.410Z,41.97
2018-02-20T20:25:05.458Z,45.97
2018-02-20T20:27:33.084Z,42.47
2018-02-20T20:30:01.418Z,43.33
2018-02-20T20:32:29.022Z,43.67
2018-02-20T20:34:57.598Z,43.53
2018-02-20T20:37:25.928Z,42.93
2018-02-20T20:39:53.793Z,44.40
2018-02-20T20:42:21.367Z,43.37
2018-02-20T20:44:48.963Z,41.37
2018-02-20T20:47:17.841Z,42.73
2018-02-20T20:49:46.263Z,41.47
2018-02-20T20:52:13.882Z,44.47
2018-02-20T20:54:42.352Z,42.53
2018-02-20T20:57:09.946Z,44.23
2018-02-20T20:59:37.529Z,43.33
2018-02-20T21:02:05.101Z,45.03
2018-02-20T21:04:32.990Z,43.07
2018-02-20T21:07:00.584Z,46.27
2018-02-20T21:09:28.250Z,46.67
2018-02-20T21:11:55.857Z,47.97
2018-02-20T21:14:23.437Z,47.30
2018-02-20T21:16:51.006Z,44.57
2018-02-20T21:19:19.727Z,45.80
2018-02-20T21:21:47.390Z,46.83
2018-02-20T21:24:14.982Z,47.73
2018-02-20T21:26:42.947Z,48.63
2018-02-20T21:29:10.540Z,49.53
2018-02-20T21:31:38.925Z,50.57
2018-02-20T21:34:07.578Z,47.87
2018-02-20T21:36:35.156Z,51.77
2018-02-20T21:39:03.905Z,50.40
2018-02-20T21:41:31.787Z,48.90
2018-02-20T21:43:59.362Z,48.63
2018-02-20T21:46:26.939Z,45.73
2018-02-20T21:48:55.321Z,47.57
2018-02-20T21:51:23.667Z,46.37
2018-02-20T21:53:52.006Z,46.40
2018-02-20T21:56:19.927Z,47.07
2018-02-20T21:58:48.266Z,47.60
2018-02-20T22:01:15.842Z,50.70
2018-02-20T22:03:43.450Z,47.80
2018-02-20T22:06:11.046Z,49.60
2018-02-20T22:08:38.637Z,48.30
2018-02-20T22:11:07.018Z,49.27
2018-02-20T22:13:35.379Z,46.50
2018-02-20T22:16:02.982Z,45.77
2018-02-20T22:18:30.847Z,46.63
2018-02-20T22:20:58.411Z,46.70
2018-02-20T22:23:25.999Z,47.90
2018-02-20T22:25:53.607Z,48.97
2018-02-20T22:28:21.994Z,50.97
2018-02-20T22:30:49.812Z,49.60
2018-02-20T22:33:17.386Z,49.43
2018-02-20T22:35:45.554Z,50.27
2018-02-20T22:38:13.437Z,49.33
2018-02-20T22:40:41.032Z,47.13
2018-02-20T22:43:08.595Z,46.90
2018-02-20T22:45:36.201Z,44.87
2018-02-20T22:48:03.853Z,44.40
2018-02-20T22:50:31.464Z,44.23
2018-02-20T22:52:59.080Z,46.97
2018-02-20T22:55:26.673Z,49.43
2018-02-20T22:57:54.994Z,49.27
2018-02-20T23:00:22.607Z,48.87
2018-02-20T23:02:50.985Z,49.93
2018-02-20T23:05:18.574Z,49.17
2018-02-20T23:07:46.144Z,48.20
2018-02-20T23:10:13.763Z,47.40
2018-02-20T23:12:42.110Z,48.83
2018-02-20T23:15:09.714Z,49.30
2018-02-20T23:17:37.666Z,53.23
2018-02-20T23:20:05.258Z,51.47
2018-02-20T23:22:32.912Z,51.03
2018-02-20T23:25:00.545Z,51.70
2018-02-20T23:27:28.913Z,51.33
2018-02-20T23:29:57.266Z,53.63
2018-02-20T23:32:24.854Z,53.07
2018-02-20T23:34:52.460Z,51.33
2018-02-20T23:37:20.025Z,49.17
2018-02-20T23:39:47.606Z,51.67
2018-02-20T23:42:15.200Z,52.30
2018-02-20T23:44:43.565Z,51.70
2018-02-20T23:47:11.922Z,51.00
2018-02-20T23:49:39.496Z,51.60
2018-02-20T23:52:07.874Z,51.53
2018-02-20T23:54:36.301Z,53.27
2018-02-20T23:57:03.871Z,50.30
2018-02-20T23:59:31.470Z,52.40
